sensor_id;sensor_type;location;lat;lon;timestamp;temperature;humidity
20803;DHT22;10562;-33.856;151.182;2022-12-18T00:01:48;20.10;99.90
20803;DHT22;10562;-33.856;151.182;2022-12-18T00:04:22;19.90;99.90
20803;DHT22;10562;-33.856;151.182;2022-12-18T00:06:55;19.80;99.90
20803;DHT22;10562;-33.856;151.182;2022-12-18T00:09:26;19.90;99.90
20803;DHT22;10562;-33.856;151.182;2022-12-18T00:11:57;19.80;99.90
20803;DHT22;10562;-33.856;151.182;2022-12-18T00:14:28;19.60;99.90
20803;DHT22;10562;-33.856;151.182;2022-12-18T00:16:59;19.40;99.90
20803;DHT22;10562;-33.856;151.182;2022-12-18T00:19:30;19.00;99.90
20803;DHT22;10562;-33.856;151.182;2022-12-18T00:22:03;19.00;99.90
20803;DHT22;10562;-33.856;151.182;2022-12-18T00:24:34;19.20;99.90
20803;DHT22;10562;-33.856;151.182;2022-12-18T00:27:05;19.30;99.90
20803;DHT22;10562;-33.856;151.182;2022-12-18T00:29:36;19.20;99.90
20803;DHT22;10562;-33.856;151.182;2022-12-18T00:32:07;19.40;99.90
20803;DHT22;10562;-33.856;151.182;2022-12-18T00:34:38;19.50;99.90
20803;DHT22;10562;-33.856;151.182;2022-12-18T00:37:10;19.50;99.90
20803;DHT22;10562;-33.856;151.182;2022-12-18T00:39:41;19.70;99.90
20803;DHT22;10562;-33.856;151.182;2022-12-18T00:42:12;19.90;99.90
20803;DHT22;10562;-33.856;151.182;2022-12-18T00:44:58;20.10;99.90
20803;DHT22;10562;-33.856;151.182;2022-12-18T00:47:29;20.50;99.90
20803;DHT22;10562;-33.856;151.182;2022-12-18T00:50:00;20.90;99.90
20803;DHT22;10562;-33.856;151.182;2022-12-18T00:52:33;21.10;99.90
20803;DHT22;10562;-33.856;151.182;2022-12-18T00:55:04;21.30;99.90
20803;DHT22;10562;-33.856;151.182;2022-12-18T00:57:36;21.70;99.90
20803;DHT22;10562;-33.856;151.182;2022-12-18T01:00:09;21.80;99.90
20803;DHT22;10562;-33.856;151.182;2022-12-18T01:02:41;21.40;99.90
20803;DHT22;10562;-33.856;151.182;2022-12-18T01:05:13;21.10;99.90
20803;DHT22;10562;-33.856;151.182;2022-12-18T01:07:46;20.20;99.90
20803;DHT22;10562;-33.856;151.182;2022-12-18T01:10:17;19.50;99.90
20803;DHT22;10562;-33.856;151.182;2022-12-18T01:12:48;19.10;99.90
20803;DHT22;10562;-33.856;151.182;2022-12-18T01:15:20;18.80;99.90
20803;DHT22;10562;-33.856;151.182;2022-12-18T01:17:53;18.80;99.90
20803;DHT22;10562;-33.856;151.182;2022-12-18T01:20:23;18.70;99.90
20803;DHT22;10562;-33.856;151.182;2022-12-18T01:22:56;18.70;99.90
20803;DHT22;10562;-33.856;151.182;2022-12-18T01:25:27;18.60;99.90
20803;DHT22;10562;-33.856;151.182;2022-12-18T01:27:58;18.70;99.90
20803;DHT22;10562;-33.856;151.182;2022-12-18T01:30:29;18.60;99.90
20803;DHT22;10562;-33.856;151.182;2022-12-18T01:33:00;18.40;99.90
20803;DHT22;10562;-33.856;151.182;2022-12-18T01:35:31;18.40;99.90
20803;DHT22;10562;-33.856;151.182;2022-12-18T01:38:04;18.30;99.90
20803;DHT22;10562;-33.856;151.182;2022-12-18T01:40:35;18.10;99.90
20803;DHT22;10562;-33.856;151.182;2022-12-18T01:43:08;18.30;99.90
20803;DHT22;10562;-33.856;151.182;2022-12-18T01:45:39;18.50;99.90
20803;DHT22;10562;-33.856;151.182;2022-12-18T01:48:10;18.70;99.90
20803;DHT22;10562;-33.856;151.182;2022-12-18T01:50:42;18.90;99.90
20803;DHT22;10562;-33.856;151.182;2022-12-18T01:53:17;19.00;99.90
20803;DHT22;10562;-33.856;151.182;2022-12-18T01:55:49;19.20;99.90
20803;DHT22;10562;-33.856;151.182;2022-12-18T01:58:24;19.40;99.90
20803;DHT22;10562;-33.856;151.182;2022-12-18T02:00:58;18.90;99.90
20803;DHT22;10562;-33.856;151.182;2022-12-18T02:03:29;18.90;99.90
20803;DHT22;10562;-33.856;151.182;2022-12-18T02:06:06;18.80;99.90
20803;DHT22;10562;-33.856;151.182;2022-12-18T02:08:52;18.70;99.90
20803;DHT22;10562;-33.856;151.182;2022-12-18T02:11:39;18.80;99.90
20803;DHT22;10562;-33.856;151.182;2022-12-18T02:14:20;19.10;99.90
20803;DHT22;10562;-33.856;151.182;2022-12-18T02:16:57;19.20;99.90
20803;DHT22;10562;-33.856;151.182;2022-12-18T02:19:58;19.60;99.90
20803;DHT22;10562;-33.856;151.182;2022-12-18T02:22:40;20.20;99.90
20803;DHT22;10562;-33.856;151.182;2022-12-18T02:25:28;20.40;99.90
20803;DHT22;10562;-33.856;151.182;2022-12-18T02:28:06;20.70;99.90
20803;DHT22;10562;-33.856;151.182;2022-12-18T02:30:39;20.80;99.90
20803;DHT22;10562;-33.856;151.182;2022-12-18T02:33:12;21.10;99.90
20803;DHT22;10562;-33.856;151.182;2022-12-18T02:35:45;21.20;99.90
20803;DHT22;10562;-33.856;151.182;2022-12-18T02:38:18;21.10;99.90
20803;DHT22;10562;-33.856;151.182;2022-12-18T02:40:52;21.30;99.90
20803;DHT22;10562;-33.856;151.182;2022-12-18T02:43:26;21.20;99.90
20803;DHT22;10562;-33.856;151.182;2022-12-18T02:45:58;21.50;99.90
20803;DHT22;10562;-33.856;151.182;2022-12-18T02:48:32;21.60;99.90
20803;DHT22;10562;-33.856;151.182;2022-12-18T02:51:08;21.70;99.90
20803;DHT22;10562;-33.856;151.182;2022-12-18T02:53:43;21.70;99.90
20803;DHT22;10562;-33.856;151.182;2022-12-18T02:56:18;21.70;99.90
20803;DHT22;10562;-33.856;151.182;2022-12-18T02:58:58;21.80;99.90
20803;DHT22;10562;-33.856;151.182;2022-12-18T03:01:33;21.70;99.90
20803;DHT22;10562;-33.856;151.182;2022-12-18T03:04:07;21.50;99.90
20803;DHT22;10562;-33.856;151.182;2022-12-18T03:06:43;21.70;99.90
20803;DHT22;10562;-33.856;151.182;2022-12-18T03:09:20;21.80;99.90
20803;DHT22;10562;-33.856;151.182;2022-12-18T03:11:58;21.80;99.90
20803;DHT22;10562;-33.856;151.182;2022-12-18T03:14:59;22.00;99.90
20803;DHT22;10562;-33.856;151.182;2022-12-18T03:17:33;22.10;99.90
20803;DHT22;10562;-33.856;151.182;2022-12-18T03:20:07;22.50;99.90
20803;DHT22;10562;-33.856;151.182;2022-12-18T03:22:39;22.30;99.90
20803;DHT22;10562;-33.856;151.182;2022-12-18T03:25:14;22.30;99.90
20803;DHT22;10562;-33.856;151.182;2022-12-18T03:27:48;22.30;99.90
20803;DHT22;10562;-33.856;151.182;2022-12-18T03:30:21;22.40;99.90
20803;DHT22;10562;-33.856;151.182;2022-12-18T03:32:56;22.30;99.90
20803;DHT22;10562;-33.856;151.182;2022-12-18T03:35:31;22.20;99.90
20803;DHT22;10562;-33.856;151.182;2022-12-18T03:38:04;22.10;99.90
20803;DHT22;10562;-33.856;151.182;2022-12-18T03:40:45;21.90;99.90
20803;DHT22;10562;-33.856;151.182;2022-12-18T03:43:23;21.80;99.90
20803;DHT22;10562;-33.856;151.182;2022-12-18T03:46:02;21.60;99.90
20803;DHT22;10562;-33.856;151.182;2022-12-18T03:48:41;21.70;99.90
20803;DHT22;10562;-33.856;151.182;2022-12-18T03:51:16;21.80;99.90
20803;DHT22;10562;-33.856;151.182;2022-12-18T03:53:51;21.80;99.90
20803;DHT22;10562;-33.856;151.182;2022-12-18T03:56:26;21.60;99.90
20803;DHT22;10562;-33.856;151.182;2022-12-18T03:58:59;21.30;99.90
20803;DHT22;10562;-33.856;151.182;2022-12-18T04:01:36;21.30;99.90
20803;DHT22;10562;-33.856;151.182;2022-12-18T04:04:09;21.40;99.90
20803;DHT22;10562;-33.856;151.182;2022-12-18T04:06:42;21.40;99.90
20803;DHT22;10562;-33.856;151.182;2022-12-18T04:09:14;21.30;99.90
20803;DHT22;10562;-33.856;151.182;2022-12-18T04:11:45;21.30;99.90
20803;DHT22;10562;-33.856;151.182;2022-12-18T04:14:17;21.20;99.90
20803;DHT22;10562;-33.856;151.182;2022-12-18T04:16:50;21.30;99.90
20803;DHT22;10562;-33.856;151.182;2022-12-18T04:19:21;21.50;99.90
20803;DHT22;10562;-33.856;151.182;2022-12-18T04:21:52;21.70;99.90
20803;DHT22;10562;-33.856;151.182;2022-12-18T04:24:23;21.80;99.90
20803;DHT22;10562;-33.856;151.182;2022-12-18T04:26:54;22.10;99.90
20803;DHT22;10562;-33.856;151.182;2022-12-18T04:29:25;22.30;99.90
20803;DHT22;10562;-33.856;151.182;2022-12-18T04:31:58;22.50;99.90
20803;DHT22;10562;-33.856;151.182;2022-12-18T04:34:29;22.80;99.90
20803;DHT22;10562;-33.856;151.182;2022-12-18T04:37:00;22.90;99.90
20803;DHT22;10562;-33.856;151.182;2022-12-18T04:39:35;22.70;99.90
20803;DHT22;10562;-33.856;151.182;2022-12-18T04:42:06;22.60;99.90
20803;DHT22;10562;-33.856;151.182;2022-12-18T04:44:37;22.20;99.90
20803;DHT22;10562;-33.856;151.182;2022-12-18T04:47:10;22.00;99.90
20803;DHT22;10562;-33.856;151.182;2022-12-18T04:49:41;22.10;99.90
20803;DHT22;10562;-33.856;151.182;2022-12-18T04:52:11;22.20;99.90
20803;DHT22;10562;-33.856;151.182;2022-12-18T04:54:42;22.00;99.90
20803;DHT22;10562;-33.856;151.182;2022-12-18T04:57:13;22.30;99.90
20803;DHT22;10562;-33.856;151.182;2022-12-18T04:59:45;22.80;99.90
20803;DHT22;10562;-33.856;151.182;2022-12-18T05:02:18;23.20;99.90
20803;DHT22;10562;-33.856;151.182;2022-12-18T05:04:49;23.50;99.90
20803;DHT22;10562;-33.856;151.182;2022-12-18T05:07:20;23.30;99.90
20803;DHT22;10562;-33.856;151.182;2022-12-18T05:09:51;23.80;99.90
20803;DHT22;10562;-33.856;151.182;2022-12-18T05:12:25;23.50;99.90
20803;DHT22;10562;-33.856;151.182;2022-12-18T05:14:56;23.90;99.90
20803;DHT22;10562;-33.856;151.182;2022-12-18T05:17:28;23.90;99.90
20803;DHT22;10562;-33.856;151.182;2022-12-18T05:19:59;23.90;99.90
20803;DHT22;10562;-33.856;151.182;2022-12-18T05:22:30;23.90;99.90
20803;DHT22;10562;-33.856;151.182;2022-12-18T05:25:08;23.90;99.90
20803;DHT22;10562;-33.856;151.182;2022-12-18T05:27:39;24.10;99.90
20803;DHT22;10562;-33.856;151.182;2022-12-18T05:30:11;24.00;99.90
20803;DHT22;10562;-33.856;151.182;2022-12-18T05:32:44;24.00;99.90
20803;DHT22;10562;-33.856;151.182;2022-12-18T05:35:15;23.90;99.90
20803;DHT22;10562;-33.856;151.182;2022-12-18T05:37:46;23.80;99.90
20803;DHT22;10562;-33.856;151.182;2022-12-18T05:40:16;23.90;99.90
20803;DHT22;10562;-33.856;151.182;2022-12-18T05:42:47;23.90;99.90
20803;DHT22;10562;-33.856;151.182;2022-12-18T05:45:18;24.20;99.90
20803;DHT22;10562;-33.856;151.182;2022-12-18T05:47:51;23.90;99.90
20803;DHT22;10562;-33.856;151.182;2022-12-18T05:50:22;23.70;99.90
20803;DHT22;10562;-33.856;151.182;2022-12-18T05:52:53;23.70;99.90
20803;DHT22;10562;-33.856;151.182;2022-12-18T05:55:24;23.40;99.90
20803;DHT22;10562;-33.856;151.182;2022-12-18T05:57:55;22.70;99.90
20803;DHT22;10562;-33.856;151.182;2022-12-18T06:00:26;21.90;99.90
20803;DHT22;10562;-33.856;151.182;2022-12-18T06:02:59;21.50;99.90
20803;DHT22;10562;-33.856;151.182;2022-12-18T06:05:34;20.90;99.90
20803;DHT22;10562;-33.856;151.182;2022-12-18T06:08:05;20.60;99.90
20803;DHT22;10562;-33.856;151.182;2022-12-18T06:10:37;20.20;99.90
20803;DHT22;10562;-33.856;151.182;2022-12-18T06:13:08;20.00;99.90
20803;DHT22;10562;-33.856;151.182;2022-12-18T06:15:39;19.90;99.90
20803;DHT22;10562;-33.856;151.182;2022-12-18T06:18:12;19.90;99.90
20803;DHT22;10562;-33.856;151.182;2022-12-18T06:20:43;19.80;99.90
20803;DHT22;10562;-33.856;151.182;2022-12-18T06:23:13;19.60;99.90
20803;DHT22;10562;-33.856;151.182;2022-12-18T06:25:44;19.50;99.90
20803;DHT22;10562;-33.856;151.182;2022-12-18T06:28:15;19.40;99.90
20803;DHT22;10562;-33.856;151.182;2022-12-18T06:30:46;19.30;99.90
20803;DHT22;10562;-33.856;151.182;2022-12-18T06:33:20;19.20;99.90
20803;DHT22;10562;-33.856;151.182;2022-12-18T06:35:51;19.10;99.90
20803;DHT22;10562;-33.856;151.182;2022-12-18T06:38:21;19.20;99.90
20803;DHT22;10562;-33.856;151.182;2022-12-18T06:40:52;19.10;99.90
20803;DHT22;10562;-33.856;151.182;2022-12-18T06:43:23;19.10;99.90
20803;DHT22;10562;-33.856;151.182;2022-12-18T06:46:00;19.00;99.90
20803;DHT22;10562;-33.856;151.182;2022-12-18T06:48:34;18.90;99.90
20803;DHT22;10562;-33.856;151.182;2022-12-18T06:51:05;18.90;99.90
20803;DHT22;10562;-33.856;151.182;2022-12-18T06:53:36;19.00;99.90
20803;DHT22;10562;-33.856;151.182;2022-12-18T06:56:07;19.10;99.90
20803;DHT22;10562;-33.856;151.182;2022-12-18T06:58:39;19.00;99.90
20803;DHT22;10562;-33.856;151.182;2022-12-18T07:01:12;19.00;99.90
20803;DHT22;10562;-33.856;151.182;2022-12-18T07:03:45;18.90;99.90
20803;DHT22;10562;-33.856;151.182;2022-12-18T07:06:18;18.80;99.90
20803;DHT22;10562;-33.856;151.182;2022-12-18T07:08:49;18.70;99.90
20803;DHT22;10562;-33.856;151.182;2022-12-18T07:11:20;18.60;99.90
20803;DHT22;10562;-33.856;151.182;2022-12-18T07:13:51;18.60;99.90
20803;DHT22;10562;-33.856;151.182;2022-12-18T07:16:22;18.60;99.90
20803;DHT22;10562;-33.856;151.182;2022-12-18T07:18:56;18.50;99.90
20803;DHT22;10562;-33.856;151.182;2022-12-18T07:21:27;18.50;99.90
20803;DHT22;10562;-33.856;151.182;2022-12-18T07:23:58;18.60;99.90
20803;DHT22;10562;-33.856;151.182;2022-12-18T07:26:29;18.60;99.90
20803;DHT22;10562;-33.856;151.182;2022-12-18T07:28:59;18.50;99.90
20803;DHT22;10562;-33.856;151.182;2022-12-18T07:31:30;18.50;99.90
20803;DHT22;10562;-33.856;151.182;2022-12-18T07:34:04;18.40;99.90
20803;DHT22;10562;-33.856;151.182;2022-12-18T07:36:35;18.40;99.90
20803;DHT22;10562;-33.856;151.182;2022-12-18T07:39:06;18.30;99.90
20803;DHT22;10562;-33.856;151.182;2022-12-18T07:41:37;18.40;99.90
20803;DHT22;10562;-33.856;151.182;2022-12-18T07:44:11;18.50;99.90
20803;DHT22;10562;-33.856;151.182;2022-12-18T07:46:42;18.50;99.90
20803;DHT22;10562;-33.856;151.182;2022-12-18T07:49:15;18.50;99.90
20803;DHT22;10562;-33.856;151.182;2022-12-18T07:51:45;18.50;99.90
20803;DHT22;10562;-33.856;151.182;2022-12-18T07:54:17;18.50;99.90
20803;DHT22;10562;-33.856;151.182;2022-12-18T07:56:48;18.30;99.90
20803;DHT22;10562;-33.856;151.182;2022-12-18T07:59:19;18.40;99.90
20803;DHT22;10562;-33.856;151.182;2022-12-18T08:01:50;18.40;99.90
20803;DHT22;10562;-33.856;151.182;2022-12-18T08:04:23;18.30;99.90
20803;DHT22;10562;-33.856;151.182;2022-12-18T08:06:54;18.20;99.90
20803;DHT22;10562;-33.856;151.182;2022-12-18T08:09:25;18.10;99.90
20803;DHT22;10562;-33.856;151.182;2022-12-18T08:11:56;18.00;99.90
20803;DHT22;10562;-33.856;151.182;2022-12-18T08:14:27;17.90;99.90
20803;DHT22;10562;-33.856;151.182;2022-12-18T08:16:57;17.80;99.90
20803;DHT22;10562;-33.856;151.182;2022-12-18T08:19:30;17.80;99.90
20803;DHT22;10562;-33.856;151.182;2022-12-18T08:22:01;17.90;99.90
20803;DHT22;10562;-33.856;151.182;2022-12-18T08:24:32;17.80;99.90
20803;DHT22;10562;-33.856;151.182;2022-12-18T08:27:03;17.80;99.90
20803;DHT22;10562;-33.856;151.182;2022-12-18T08:29:34;17.80;99.90
20803;DHT22;10562;-33.856;151.182;2022-12-18T08:32:05;17.80;99.90
20803;DHT22;10562;-33.856;151.182;2022-12-18T08:34:37;17.80;99.90
20803;DHT22;10562;-33.856;151.182;2022-12-18T08:37:08;17.80;99.90
20803;DHT22;10562;-33.856;151.182;2022-12-18T08:39:39;17.80;99.90
20803;DHT22;10562;-33.856;151.182;2022-12-18T08:42:10;17.80;99.90
20803;DHT22;10562;-33.856;151.182;2022-12-18T08:44:57;17.80;99.90
20803;DHT22;10562;-33.856;151.182;2022-12-18T08:47:28;17.80;99.90
20803;DHT22;10562;-33.856;151.182;2022-12-18T08:50:01;17.90;99.90
20803;DHT22;10562;-33.856;151.182;2022-12-18T08:52:33;17.70;99.90
20803;DHT22;10562;-33.856;151.182;2022-12-18T08:55:04;17.70;99.90
20803;DHT22;10562;-33.856;151.182;2022-12-18T08:57:35;17.70;99.90
20803;DHT22;10562;-33.856;151.182;2022-12-18T09:00:07;17.60;99.90
20803;DHT22;10562;-33.856;151.182;2022-12-18T09:02:38;17.20;99.90
20803;DHT22;10562;-33.856;151.182;2022-12-18T09:05:11;16.80;99.90
20803;DHT22;10562;-33.856;151.182;2022-12-18T09:07:42;16.60;99.90
20803;DHT22;10562;-33.856;151.182;2022-12-18T09:10:12;16.40;99.90
20803;DHT22;10562;-33.856;151.182;2022-12-18T09:12:43;16.20;99.90
20803;DHT22;10562;-33.856;151.182;2022-12-18T09:15:15;16.00;99.90
20803;DHT22;10562;-33.856;151.182;2022-12-18T09:17:46;15.90;99.90
20803;DHT22;10562;-33.856;151.182;2022-12-18T09:20:19;15.70;99.90
20803;DHT22;10562;-33.856;151.182;2022-12-18T09:22:50;15.60;99.90
20803;DHT22;10562;-33.856;151.182;2022-12-18T09:25:21;15.60;99.90
20803;DHT22;10562;-33.856;151.182;2022-12-18T09:27:52;15.60;99.90
20803;DHT22;10562;-33.856;151.182;2022-12-18T09:30:23;15.50;99.90
20803;DHT22;10562;-33.856;151.182;2022-12-18T09:32:55;15.50;99.90
20803;DHT22;10562;-33.856;151.182;2022-12-18T09:35:30;15.50;99.90
20803;DHT22;10562;-33.856;151.182;2022-12-18T09:38:01;15.40;99.90
20803;DHT22;10562;-33.856;151.182;2022-12-18T09:40:36;15.40;99.90
20803;DHT22;10562;-33.856;151.182;2022-12-18T09:43:13;15.30;99.90
20803;DHT22;10562;-33.856;151.182;2022-12-18T09:45:46;15.30;99.90
20803;DHT22;10562;-33.856;151.182;2022-12-18T09:48:21;15.30;99.90
20803;DHT22;10562;-33.856;151.182;2022-12-18T09:51:00;15.30;99.90
20803;DHT22;10562;-33.856;151.182;2022-12-18T09:53:36;15.30;99.90
20803;DHT22;10562;-33.856;151.182;2022-12-18T09:56:15;15.30;99.90
20803;DHT22;10562;-33.856;151.182;2022-12-18T09:58:51;15.40;99.90
20803;DHT22;10562;-33.856;151.182;2022-12-18T10:01:25;15.50;99.90
20803;DHT22;10562;-33.856;151.182;2022-12-18T10:03:57;15.50;99.90
20803;DHT22;10562;-33.856;151.182;2022-12-18T10:06:34;15.60;99.90
20803;DHT22;10562;-33.856;151.182;2022-12-18T10:09:10;15.60;99.90
20803;DHT22;10562;-33.856;151.182;2022-12-18T10:11:52;15.70;99.90
20803;DHT22;10562;-33.856;151.182;2022-12-18T10:14:27;15.70;99.90
20803;DHT22;10562;-33.856;151.182;2022-12-18T10:17:05;15.70;99.90
20803;DHT22;10562;-33.856;151.182;2022-12-18T10:19:41;15.70;99.90
20803;DHT22;10562;-33.856;151.182;2022-12-18T10:22:36;15.70;99.90
20803;DHT22;10562;-33.856;151.182;2022-12-18T10:25:20;15.70;99.90
20803;DHT22;10562;-33.856;151.182;2022-12-18T10:27:56;15.80;99.90
20803;DHT22;10562;-33.856;151.182;2022-12-18T10:30:28;15.90;99.90
20803;DHT22;10562;-33.856;151.182;2022-12-18T10:33:02;15.90;99.90
20803;DHT22;10562;-33.856;151.182;2022-12-18T10:35:33;15.90;99.90
20803;DHT22;10562;-33.856;151.182;2022-12-18T10:38:20;16.00;99.90
20803;DHT22;10562;-33.856;151.182;2022-12-18T10:40:53;16.10;99.90
20803;DHT22;10562;-33.856;151.182;2022-12-18T10:43:26;16.10;99.90
20803;DHT22;10562;-33.856;151.182;2022-12-18T10:46:03;16.20;99.90
20803;DHT22;10562;-33.856;151.182;2022-12-18T10:48:40;16.10;99.90
20803;DHT22;10562;-33.856;151.182;2022-12-18T10:51:21;16.00;99.90
20803;DHT22;10562;-33.856;151.182;2022-12-18T10:53:57;15.90;99.90
20803;DHT22;10562;-33.856;151.182;2022-12-18T10:56:31;15.90;99.90
20803;DHT22;10562;-33.856;151.182;2022-12-18T10:59:04;15.90;99.90
20803;DHT22;10562;-33.856;151.182;2022-12-18T11:01:49;15.90;99.90
20803;DHT22;10562;-33.856;151.182;2022-12-18T11:04:22;15.90;99.90
20803;DHT22;10562;-33.856;151.182;2022-12-18T11:06:59;15.80;99.90
20803;DHT22;10562;-33.856;151.182;2022-12-18T11:09:32;15.80;99.90
20803;DHT22;10562;-33.856;151.182;2022-12-18T11:12:05;15.70;99.90
20803;DHT22;10562;-33.856;151.182;2022-12-18T11:14:46;15.70;99.90
20803;DHT22;10562;-33.856;151.182;2022-12-18T11:17:20;15.60;99.90
20803;DHT22;10562;-33.856;151.182;2022-12-18T11:19:55;15.50;99.90
20803;DHT22;10562;-33.856;151.182;2022-12-18T11:22:27;15.50;99.90
20803;DHT22;10562;-33.856;151.182;2022-12-18T11:25:01;15.60;99.90
20803;DHT22;10562;-33.856;151.182;2022-12-18T11:27:34;15.70;99.90
20803;DHT22;10562;-33.856;151.182;2022-12-18T11:30:22;15.70;99.90
20803;DHT22;10562;-33.856;151.182;2022-12-18T11:32:55;15.60;99.90
20803;DHT22;10562;-33.856;151.182;2022-12-18T11:35:40;15.60;99.90
20803;DHT22;10562;-33.856;151.182;2022-12-18T11:38:19;15.50;99.90
20803;DHT22;10562;-33.856;151.182;2022-12-18T11:40:58;15.40;99.90
20803;DHT22;10562;-33.856;151.182;2022-12-18T11:43:33;15.40;99.90
20803;DHT22;10562;-33.856;151.182;2022-12-18T11:46:08;15.30;99.90
20803;DHT22;10562;-33.856;151.182;2022-12-18T11:48:44;15.30;99.90
20803;DHT22;10562;-33.856;151.182;2022-12-18T11:51:22;15.30;99.90
20803;DHT22;10562;-33.856;151.182;2022-12-18T11:53:56;15.20;99.90
20803;DHT22;10562;-33.856;151.182;2022-12-18T11:56:36;15.20;99.90
20803;DHT22;10562;-33.856;151.182;2022-12-18T11:59:16;15.30;99.90
20803;DHT22;10562;-33.856;151.182;2022-12-18T12:01:52;15.30;99.90
20803;DHT22;10562;-33.856;151.182;2022-12-18T12:04:43;15.30;99.90
20803;DHT22;10562;-33.856;151.182;2022-12-18T12:07:29;15.30;99.90
20803;DHT22;10562;-33.856;151.182;2022-12-18T12:10:13;15.30;99.90
20803;DHT22;10562;-33.856;151.182;2022-12-18T12:13:02;15.30;99.90
20803;DHT22;10562;-33.856;151.182;2022-12-18T12:15:43;15.30;99.90
20803;DHT22;10562;-33.856;151.182;2022-12-18T12:18:25;15.30;99.90
20803;DHT22;10562;-33.856;151.182;2022-12-18T12:21:05;15.40;99.90
20803;DHT22;10562;-33.856;151.182;2022-12-18T12:23:43;15.40;99.90
20803;DHT22;10562;-33.856;151.182;2022-12-18T12:26:19;15.40;99.90
20803;DHT22;10562;-33.856;151.182;2022-12-18T12:32:13;15.50;99.90
20803;DHT22;10562;-33.856;151.182;2022-12-18T12:34:54;15.50;99.90
20803;DHT22;10562;-33.856;151.182;2022-12-18T12:37:33;15.50;99.90
20803;DHT22;10562;-33.856;151.182;2022-12-18T12:40:13;15.40;99.90
20803;DHT22;10562;-33.856;151.182;2022-12-18T12:42:47;15.40;99.90
20803;DHT22;10562;-33.856;151.182;2022-12-18T12:45:40;15.40;99.90
20803;DHT22;10562;-33.856;151.182;2022-12-18T12:48:19;15.40;99.90
20803;DHT22;10562;-33.856;151.182;2022-12-18T12:50:51;15.40;99.90
20803;DHT22;10562;-33.856;151.182;2022-12-18T12:53:28;15.50;99.90
20803;DHT22;10562;-33.856;151.182;2022-12-18T12:56:01;15.40;99.90
20803;DHT22;10562;-33.856;151.182;2022-12-18T12:58:41;15.40;99.90
20803;DHT22;10562;-33.856;151.182;2022-12-18T13:01:21;15.40;99.90
20803;DHT22;10562;-33.856;151.182;2022-12-18T13:04:06;15.50;99.90
20803;DHT22;10562;-33.856;151.182;2022-12-18T13:06:45;15.50;99.90
20803;DHT22;10562;-33.856;151.182;2022-12-18T13:09:18;15.50;99.90
20803;DHT22;10562;-33.856;151.182;2022-12-18T13:11:49;15.50;99.90
20803;DHT22;10562;-33.856;151.182;2022-12-18T13:14:37;15.50;99.90
20803;DHT22;10562;-33.856;151.182;2022-12-18T13:17:29;15.50;99.90
20803;DHT22;10562;-33.856;151.182;2022-12-18T13:20:12;15.60;99.90
20803;DHT22;10562;-33.856;151.182;2022-12-18T13:22:46;15.60;99.90
20803;DHT22;10562;-33.856;151.182;2022-12-18T13:25:32;15.60;99.90
20803;DHT22;10562;-33.856;151.182;2022-12-18T13:28:11;15.70;99.90
20803;DHT22;10562;-33.856;151.182;2022-12-18T13:30:50;15.70;99.90
20803;DHT22;10562;-33.856;151.182;2022-12-18T13:33:41;15.70;99.90
20803;DHT22;10562;-33.856;151.182;2022-12-18T13:36:30;15.70;99.90
20803;DHT22;10562;-33.856;151.182;2022-12-18T13:39:33;15.70;99.90
20803;DHT22;10562;-33.856;151.182;2022-12-18T13:42:43;15.70;99.90
20803;DHT22;10562;-33.856;151.182;2022-12-18T13:45:48;15.80;99.90
20803;DHT22;10562;-33.856;151.182;2022-12-18T13:48:24;15.80;99.90
20803;DHT22;10562;-33.856;151.182;2022-12-18T13:51:00;15.90;99.90
20803;DHT22;10562;-33.856;151.182;2022-12-18T13:53:36;15.90;99.90
20803;DHT22;10562;-33.856;151.182;2022-12-18T13:56:08;15.90;99.90
20803;DHT22;10562;-33.856;151.182;2022-12-18T13:58:39;15.90;99.90
20803;DHT22;10562;-33.856;151.182;2022-12-18T14:01:22;15.90;99.90
20803;DHT22;10562;-33.856;151.182;2022-12-18T14:04:10;15.90;99.90
20803;DHT22;10562;-33.856;151.182;2022-12-18T14:06:41;15.90;99.90
20803;DHT22;10562;-33.856;151.182;2022-12-18T14:09:17;15.90;99.90
20803;DHT22;10562;-33.856;151.182;2022-12-18T14:11:50;15.90;99.90
20803;DHT22;10562;-33.856;151.182;2022-12-18T14:14:44;15.90;99.90
20803;DHT22;10562;-33.856;151.182;2022-12-18T14:17:17;15.90;99.90
20803;DHT22;10562;-33.856;151.182;2022-12-18T14:19:49;15.90;99.90
20803;DHT22;10562;-33.856;151.182;2022-12-18T14:22:21;15.80;99.90
20803;DHT22;10562;-33.856;151.182;2022-12-18T14:25:16;15.80;99.90
20803;DHT22;10562;-33.856;151.182;2022-12-18T14:27:50;15.70;99.90
20803;DHT22;10562;-33.856;151.182;2022-12-18T14:30:29;15.70;99.90
20803;DHT22;10562;-33.856;151.182;2022-12-18T14:33:09;15.60;99.90
20803;DHT22;10562;-33.856;151.182;2022-12-18T14:35:41;15.60;99.90
20803;DHT22;10562;-33.856;151.182;2022-12-18T14:38:23;15.60;99.90
20803;DHT22;10562;-33.856;151.182;2022-12-18T14:41:01;15.60;99.90
20803;DHT22;10562;-33.856;151.182;2022-12-18T14:43:34;15.60;99.90
20803;DHT22;10562;-33.856;151.182;2022-12-18T14:46:24;15.60;99.90
20803;DHT22;10562;-33.856;151.182;2022-12-18T14:48:56;15.50;99.90
20803;DHT22;10562;-33.856;151.182;2022-12-18T14:51:28;15.60;99.90
20803;DHT22;10562;-33.856;151.182;2022-12-18T14:54:01;15.50;99.90
20803;DHT22;10562;-33.856;151.182;2022-12-18T14:56:36;15.50;99.90
20803;DHT22;10562;-33.856;151.182;2022-12-18T14:59:14;15.50;99.90
20803;DHT22;10562;-33.856;151.182;2022-12-18T15:01:48;15.60;99.90
20803;DHT22;10562;-33.856;151.182;2022-12-18T15:04:28;15.50;99.90
20803;DHT22;10562;-33.856;151.182;2022-12-18T15:07:12;15.50;99.90
20803;DHT22;10562;-33.856;151.182;2022-12-18T15:09:47;15.50;99.90
20803;DHT22;10562;-33.856;151.182;2022-12-18T15:12:35;15.60;99.90
20803;DHT22;10562;-33.856;151.182;2022-12-18T15:17:58;15.80;99.90
20803;DHT22;10562;-33.856;151.182;2022-12-18T15:20:30;15.70;99.90
20803;DHT22;10562;-33.856;151.182;2022-12-18T15:23:02;15.70;99.90
20803;DHT22;10562;-33.856;151.182;2022-12-18T15:25:34;15.80;99.90
20803;DHT22;10562;-33.856;151.182;2022-12-18T15:28:21;15.80;99.90
20803;DHT22;10562;-33.856;151.182;2022-12-18T15:31:01;15.80;99.90
20803;DHT22;10562;-33.856;151.182;2022-12-18T15:33:33;16.00;99.90
20803;DHT22;10562;-33.856;151.182;2022-12-18T15:36:07;16.20;99.90
20803;DHT22;10562;-33.856;151.182;2022-12-18T15:38:38;16.20;99.90
20803;DHT22;10562;-33.856;151.182;2022-12-18T15:41:14;16.30;99.90